Time;durP1;ratioP1;P1;durP2;ratioP2;P2;SDS_P1;SDS_P2;PMS_P1;PMS_P2;Temp;Humidity;BMP_temperature;BMP_pressure;BME280_temperature;BME280_humidity;BME280_pressure;Samples;Min_cycle;Max_cycle;Signal;HPM_P1;HPM_P2
2024/03/17 00:01:06;;;;;;;14.55;4.28;;;6.40;77.10;;;;;;9176605;19;20007;-67
2024/03/17 00:04:15;;;;;;;16.80;5.13;;;6.40;77.20;;;;;;9177617;19;20018;-66
2024/03/17 00:07:17;;;;;;;18.75;5.65;;;6.40;77.20;;;;;;9174264;19;20010;-66
2024/03/17 00:10:24;;;;;;;16.52;5.70;;;6.30;77.20;;;;;;9176964;19;20023;-65
2024/03/17 00:13:25;;;;;;;15.63;4.18;;;6.30;77.20;;;;;;9177474;19;20380;-66
2024/03/17 00:16:32;;;;;;;;;;;6.30;77.20;;;;;;9178745;19;20015;-66
2024/03/17 00:19:39;;;;;;;13.55;4.20;;;6.30;77.20;;;;;;9176363;19;19925;-65
2024/03/17 00:22:43;;;;;;;8.20;4.07;;;6.30;77.30;;;;;;9176686;19;20018;-66
2024/03/17 00:25:47;;;;;;;9.25;3.97;;;6.20;77.30;;;;;;9177049;19;20059;-66
2024/03/17 00:28:51;;;;;;;9.95;4.55;;;6.20;77.30;;;;;;9176925;19;20025;-66
2024/03/17 00:31:56;;;;;;;7.20;4.72;;;6.20;77.40;;;;;;9174772;19;20022;-66
2024/03/17 00:35:04;;;;;;;14.70;5.53;;;6.20;77.40;;;;;;9176849;19;20032;-65
2024/03/17 00:38:10;;;;;;;10.93;5.20;;;6.20;77.40;;;;;;9174389;19;20042;-66
2024/03/17 00:41:16;;;;;;;11.35;5.88;;;6.20;77.40;;;;;;9175379;19;20026;-67
2024/03/17 00:44:18;;;;;;;13.70;6.07;;;6.20;77.50;;;;;;9176328;19;20020;-65
2024/03/17 00:47:24;;;;;;;17.60;7.03;;;6.20;77.50;;;;;;9175609;19;20496;-67
2024/03/17 00:50:29;;;;;;;15.45;6.93;;;6.20;77.50;;;;;;9171892;19;20388;-66
2024/03/17 00:53:35;;;;;;;14.68;7.20;;;6.20;77.60;;;;;;9175559;19;20487;-65
2024/03/17 00:56:37;;;;;;;15.82;6.53;;;6.10;77.50;;;;;;9176243;19;20010;-66
2024/03/17 00:59:44;;;;;;;16.58;5.63;;;6.10;77.50;;;;;;9174838;19;20021;-65
2024/03/17 01:02:48;;;;;;;18.83;6.50;;;6.10;77.60;;;;;;9174782;19;20418;-67
2024/03/17 01:05:55;;;;;;;11.02;5.85;;;6.10;77.60;;;;;;9175498;19;20109;-66
2024/03/17 01:08:59;;;;;;;12.93;5.57;;;6.10;77.60;;;;;;9175420;19;20089;-66
2024/03/17 01:12:04;;;;;;;10.63;5.20;;;6.10;77.70;;;;;;9173431;19;20014;-66
2024/03/17 01:15:10;;;;;;;15.18;5.65;;;6.10;77.70;;;;;;9175266;19;20018;-66
2024/03/17 01:18:16;;;;;;;6.60;3.85;;;6.00;77.70;;;;;;9173463;19;20022;-67
2024/03/17 01:21:24;;;;;;;9.50;3.72;;;6.00;77.70;;;;;;9174530;19;20038;-66
2024/03/17 01:24:31;;;;;;;8.88;3.88;;;6.00;77.80;;;;;;9174662;19;20022;-67
2024/03/17 01:27:35;;;;;;;9.13;3.70;;;5.90;77.70;;;;;;9173799;19;20018;-67
2024/03/17 01:30:39;;;;;;;8.27;3.35;;;5.90;77.80;;;;;;9173945;19;20018;-66
2024/03/17 01:33:44;;;;;;;14.27;3.50;;;5.90;77.80;;;;;;9173895;19;20034;-65
2024/03/17 01:36:53;;;;;;;11.90;3.78;;;5.90;77.80;;;;;;9173735;19;20025;-65
2024/03/17 01:39:55;;;;;;;9.15;3.75;;;5.90;77.90;;;;;;9174609;19;20025;-66
2024/03/17 01:43:02;;;;;;;;;;;5.80;77.80;;;;;;9174390;19;20019;-65
2024/03/17 01:46:04;;;;;;;6.05;3.47;;;5.80;77.90;;;;;;9174339;19;19982;-66
2024/03/17 01:49:11;;;;;;;10.65;3.42;;;5.70;77.80;;;;;;9171700;19;20487;-67
2024/03/17 01:52:19;;;;;;;12.07;3.60;;;5.70;77.90;;;;;;9168851;19;20021;-66
2024/03/17 01:55:26;;;;;;;13.23;3.85;;;5.70;77.90;;;;;;9173806;19;20022;-66
2024/03/17 01:58:33;;;;;;;9.60;3.17;;;5.70;77.90;;;;;;9173851;19;20014;-67
2024/03/17 02:01:37;;;;;;;5.50;3.28;;;5.70;78.00;;;;;;9170876;19;20018;-65
2024/03/17 02:04:41;;;;;;;9.00;3.22;;;5.70;78.00;;;;;;9173710;19;20002;-66
2024/03/17 02:07:48;;;;;;;5.10;3.28;;;5.60;78.00;;;;;;9172361;19;20383;-65
2024/03/17 02:10:55;;;;;;;10.52;3.97;;;5.60;78.00;;;;;;9173037;19;20487;-65
2024/03/17 02:14:03;;;;;;;7.80;3.40;;;5.60;78.10;;;;;;9172257;19;20019;-67
2024/03/17 02:17:05;;;;;;;6.68;3.47;;;5.60;78.10;;;;;;9173316;19;20014;-66
2024/03/17 02:20:12;;;;;;;;;;;5.50;78.10;;;;;;9172918;19;20025;-66
2024/03/17 02:23:18;;;;;;;7.22;3.40;;;5.50;78.00;;;;;;9171817;19;19933;-66
2024/03/17 02:26:25;;;;;;;6.60;3.38;;;5.50;78.00;;;;;;9172439;19;20015;-66
2024/03/17 02:29:29;;;;;;;10.77;3.40;;;5.40;78.00;;;;;;9177524;19;20018;-66
2024/03/17 02:32:36;;;;;;;10.55;3.70;;;5.50;78.10;;;;;;9182048;19;20029;-67
2024/03/17 02:35:37;;;;;;;8.73;3.05;;;5.40;78.10;;;;;;9181321;19;20015;-66
2024/03/17 02:42:07;;;;;;;15.75;5.03;;;5.40;78.10;;;;;;9181946;19;20912;-67
2024/03/17 02:45:14;;;;;;;4.85;3.05;;;5.30;78.10;;;;;;9180735;19;20102;-65
2024/03/17 02:48:18;;;;;;;8.60;3.40;;;5.40;78.20;;;;;;9178770;19;20073;-66
2024/03/17 02:51:25;;;;;;;7.72;3.42;;;5.30;78.10;;;;;;9177531;19;20025;-66
2024/03/17 02:54:32;;;;;;;10.13;3.20;;;5.30;78.10;;;;;;9179942;19;20011;-65
2024/03/17 02:57:40;;;;;;;9.43;4.38;;;5.30;78.10;;;;;;9181442;19;20407;-66
2024/03/17 03:00:44;;;;;;;8.88;4.20;;;5.30;78.20;;;;;;9181071;19;20014;-65
2024/03/17 03:03:51;;;;;;;4.60;3.10;;;5.20;78.20;;;;;;9181382;19;20021;-65
2024/03/17 03:06:55;;;;;;;10.27;3.30;;;5.20;78.20;;;;;;9178820;19;20015;-66
2024/03/17 03:10:05;;;;;;;11.15;3.40;;;5.20;78.30;;;;;;9180510;19;20013;-66
2024/03/17 03:13:09;;;;;;;15.07;3.20;;;5.10;78.20;;;;;;9181321;19;20017;-67
2024/03/17 03:16:18;;;;;;;7.55;3.33;;;5.10;78.30;;;;;;9180315;19;20605;-66
2024/03/17 03:19:22;;;;;;;7.78;2.90;;;5.10;78.30;;;;;;9179619;19;20356;-66
2024/03/17 03:22:29;;;;;;;11.50;3.63;;;5.10;78.30;;;;;;9180039;19;20409;-65
2024/03/17 03:25:36;;;;;;;6.03;3.72;;;5.00;78.30;;;;;;9179512;19;20078;-66
2024/03/17 03:28:43;;;;;;;5.72;3.20;;;5.00;78.30;;;;;;9177564;19;20377;-66
2024/03/17 03:31:48;;;;;;;7.30;2.60;;;5.00;78.30;;;;;;9179435;19;20031;-66
2024/03/17 03:34:54;;;;;;;8.25;4.10;;;4.90;78.30;;;;;;9179562;19;20026;-65
2024/03/17 03:37:58;;;;;;;10.00;3.53;;;4.90;78.40;;;;;;9176570;19;20464;-65
2024/03/17 03:41:12;;;;;;;7.95;3.22;;;4.90;78.40;;;;;;9177849;19;20014;-65
2024/03/17 03:44:16;;;;;;;8.18;3.63;;;4.90;78.50;;;;;;9178695;19;20018;-66
2024/03/17 03:47:22;;;;;;;7.30;3.47;;;4.90;78.40;;;;;;9177750;19;20022;-64
2024/03/17 03:50:27;;;;;;;7.47;3.60;;;4.90;78.40;;;;;;9173556;19;20047;-65
2024/03/17 03:53:34;;;;;;;6.90;3.30;;;4.90;78.50;;;;;;9178519;19;20384;-65
2024/03/17 03:56:41;;;;;;;4.93;3.55;;;4.80;78.50;;;;;;9177948;19;20019;-66
2024/03/17 03:59:47;;;;;;;6.13;3.70;;;4.80;78.60;;;;;;9177578;19;20499;-66
2024/03/17 04:02:53;;;;;;;6.05;3.85;;;4.80;78.60;;;;;;9178911;19;20019;-65
2024/03/17 04:06:05;;;;;;;9.38;4.20;;;4.80;78.60;;;;;;9177601;19;20014;-68
2024/03/17 04:09:10;;;;;;;12.02;3.70;;;4.80;78.60;;;;;;9175057;19;20561;-65
2024/03/17 04:12:19;;;;;;;9.07;4.40;;;4.80;78.60;;;;;;9177667;19;20018;-65
2024/03/17 04:15:23;;;;;;;10.27;4.20;;;4.80;78.70;;;;;;9178144;19;20097;-65
2024/03/17 04:18:30;;;;;;;7.43;3.30;;;4.90;78.70;;;;;;9174777;19;20497;-66
2024/03/17 04:21:35;;;;;;;9.57;4.03;;;4.90;78.80;;;;;;9177282;19;20014;-67
2024/03/17 04:24:41;;;;;;;13.65;4.18;;;4.90;78.80;;;;;;9177583;19;20014;-66
2024/03/17 04:27:49;;;;;;;8.05;3.90;;;4.90;78.80;;;;;;9175207;19;20010;-67
2024/03/17 04:30:55;;;;;;;5.93;3.25;;;4.90;78.80;;;;;;9176618;19;20026;-66
2024/03/17 04:34:00;;;;;;;11.80;4.43;;;4.90;78.90;;;;;;9177088;19;20070;-67
2024/03/17 04:37:07;;;;;;;8.98;3.47;;;5.00;78.90;;;;;;9175794;19;20029;-66
2024/03/17 04:40:13;;;;;;;12.27;4.00;;;5.00;78.90;;;;;;9175051;19;20019;-65
2024/03/17 04:43:22;;;;;;;11.07;4.72;;;5.00;78.90;;;;;;9176456;19;20019;-66
2024/03/17 04:46:26;;;;;;;15.23;5.00;;;5.00;79.00;;;;;;9176738;19;20024;-67
2024/03/17 04:49:33;;;;;;;10.35;4.43;;;5.00;79.00;;;;;;9169986;19;20523;-66
2024/03/17 04:52:37;;;;;;;9.75;4.38;;;5.00;79.00;;;;;;9173941;19;20513;-66
2024/03/17 04:55:44;;;;;;;8.68;4.07;;;5.10;79.10;;;;;;9175874;19;20018;-66
2024/03/17 04:58:51;;;;;;;14.13;4.40;;;5.10;79.10;;;;;;9175566;19;20017;-65
2024/03/17 05:01:57;;;;;;;12.75;4.30;;;5.10;79.10;;;;;;9175300;19;20016;-65
2024/03/17 05:05:02;;;;;;;6.13;3.30;;;5.10;79.10;;;;;;9176335;19;20390;-66
2024/03/17 05:08:08;;;;;;;14.48;4.38;;;5.10;79.10;;;;;;9174651;19;20452;-65
2024/03/17 05:11:14;;;;;;;10.10;3.80;;;5.20;79.20;;;;;;9175354;19;20036;-68
2024/03/17 05:14:23;;;;;;;8.70;3.65;;;5.20;79.20;;;;;;9173560;19;20018;-67
2024/03/17 05:17:27;;;;;;;10.93;3.47;;;5.20;79.20;;;;;;9175503;19;20066;-67
2024/03/17 05:20:34;;;;;;;10.48;4.32;;;5.20;79.20;;;;;;9173874;19;20372;-65
2024/03/17 05:23:40;;;;;;;9.02;3.90;;;5.30;79.30;;;;;;9175231;19;20105;-65
2024/03/17 05:26:46;;;;;;;11.38;3.78;;;5.30;79.30;;;;;;9175667;19;20023;-66
2024/03/17 05:29:53;;;;;;;8.48;4.00;;;5.30;79.20;;;;;;9170811;19;20022;-66
2024/03/17 05:32:59;;;;;;;11.02;3.58;;;5.30;79.30;;;;;;9173472;19;20014;-65
2024/03/17 05:36:06;;;;;;;17.25;3.70;;;5.30;79.20;;;;;;9173007;19;20015;-66
2024/03/17 05:39:12;;;;;;;6.28;3.47;;;5.30;79.30;;;;;;9170765;19;20011;-66
2024/03/17 05:42:17;;;;;;;12.02;3.88;;;5.30;79.30;;;;;;9172712;19;20018;-66
2024/03/17 05:45:26;;;;;;;12.32;3.80;;;5.30;79.30;;;;;;9173902;19;20022;-67
2024/03/17 05:48:30;;;;;;;12.63;3.63;;;5.30;79.30;;;;;;9172699;19;20468;-66
2024/03/17 05:51:36;;;;;;;7.85;3.03;;;5.30;79.30;;;;;;9169410;19;20375;-66
2024/03/17 05:54:41;;;;;;;11.68;3.33;;;5.30;79.30;;;;;;9173734;19;20031;-66
2024/03/17 05:57:47;;;;;;;7.82;4.07;;;5.30;79.30;;;;;;9173783;19;20025;-65
2024/03/17 06:00:54;;;;;;;8.88;3.45;;;5.40;79.40;;;;;;9173977;19;20089;-67
2024/03/17 06:04:04;;;;;;;11.88;3.92;;;5.30;79.40;;;;;;9171479;19;20023;-65
2024/03/17 06:07:08;;;;;;;13.85;3.22;;;5.40;79.40;;;;;;9172185;19;20029;-66
2024/03/17 06:10:15;;;;;;;5.22;3.38;;;5.30;79.40;;;;;;9171290;19;20017;-66
2024/03/17 06:13:19;;;;;;;14.40;3.78;;;5.40;79.40;;;;;;9172138;19;20029;-66
2024/03/17 06:16:28;;;;;;;10.70;3.33;;;5.40;79.40;;;;;;9173280;19;20021;-65
2024/03/17 06:19:34;;;;;;;11.85;3.65;;;5.40;79.40;;;;;;9173619;19;20018;-67
2024/03/17 06:22:40;;;;;;;7.78;3.78;;;5.40;79.50;;;;;;9172624;19;20491;-69
2024/03/17 06:25:45;;;;;;;8.20;3.55;;;5.40;79.50;;;;;;9172854;19;20017;-67
2024/03/17 06:28:52;;;;;;;11.32;3.42;;;5.40;79.50;;;;;;9171680;19;20017;-66
2024/03/17 06:31:59;;;;;;;15.55;3.78;;;5.40;79.50;;;;;;9171211;19;20011;-66
2024/03/17 06:35:07;;;;;;;13.30;3.90;;;5.50;79.70;;;;;;9171323;19;20026;-66
2024/03/17 06:38:11;;;;;;;13.57;4.28;;;5.50;79.70;;;;;;9168649;19;20011;-67
2024/03/17 06:41:18;;;;;;;12.63;4.20;;;5.50;79.80;;;;;;9172267;19;20025;-69
2024/03/17 06:44:24;;;;;;;13.10;4.05;;;5.60;79.90;;;;;;9170959;19;20915;-67
2024/03/17 06:47:33;;;;;;;20.45;5.28;;;5.60;80.00;;;;;;9170736;19;20455;-67
2024/03/17 06:50:40;;;;;;;18.88;6.43;;;5.70;80.10;;;;;;9164184;19;20015;-66
2024/03/17 06:53:46;;;;;;;12.70;4.35;;;5.70;80.10;;;;;;9170060;19;20018;-68
2024/03/17 06:56:51;;;;;;;10.00;4.80;;;5.80;80.20;;;;;;9171287;19;20118;-67
2024/03/17 06:59:58;;;;;;;18.23;5.43;;;5.90;80.20;;;;;;9170323;19;20025;-65
2024/03/17 07:03:05;;;;;;;13.23;5.97;;;5.90;80.30;;;;;;9168723;19;20019;-66
2024/03/17 07:06:12;;;;;;;16.77;5.63;;;6.00;80.50;;;;;;9168629;19;20025;-66
2024/03/17 07:09:17;;;;;;;12.15;5.95;;;6.10;81.10;;;;;;9169727;19;20037;-67
2024/03/17 07:12:23;;;;;;;20.02;6.30;;;6.30;80.60;;;;;;9169479;19;20018;-67
2024/03/17 07:15:27;;;;;;;15.80;6.50;;;6.30;80.60;;;;;;9173177;19;20011;-66
2024/03/17 07:18:37;;;;;;;18.70;6.53;;;6.50;80.70;;;;;;9179027;19;20389;-66
2024/03/17 07:21:41;;;;;;;21.27;6.70;;;6.60;80.80;;;;;;9180888;19;20490;-66
2024/03/17 07:24:47;;;;;;;15.98;6.38;;;6.70;80.70;;;;;;9179332;19;20032;-67
2024/03/17 07:27:52;;;;;;;18.25;7.03;;;6.80;80.70;;;;;;9180038;19;20014;-67
2024/03/17 07:31:00;;;;;;;17.50;7.00;;;6.90;80.70;;;;;;9176905;19;20090;-66
2024/03/17 07:34:07;;;;;;;23.60;7.22;;;7.00;80.80;;;;;;9178634;19;20010;-68
2024/03/17 07:37:13;;;;;;;16.52;6.93;;;7.10;80.80;;;;;;9178046;19;20487;-66
2024/03/17 07:40:18;;;;;;;19.70;7.93;;;7.20;80.80;;;;;;9179213;19;20018;-67
2024/03/17 07:43:25;;;;;;;24.10;7.90;;;7.30;80.90;;;;;;9179098;19;20025;-68
2024/03/17 07:46:29;;;;;;;16.65;8.45;;;7.50;81.10;;;;;;9177836;19;20764;-66
2024/03/17 07:49:38;;;;;;;20.67;8.85;;;7.70;81.30;;;;;;9173160;19;20023;-66
2024/03/17 07:52:42;;;;;;;17.90;8.93;;;7.90;81.30;;;;;;9178259;19;20014;-67
2024/03/17 07:55:49;;;;;;;18.08;7.95;;;8.00;81.20;;;;;;9178372;19;20030;-67
2024/03/17 07:58:53;;;;;;;18.30;8.85;;;8.20;81.70;;;;;;9178156;19;20011;-68
2024/03/17 08:01:59;;;;;;;18.58;7.85;;;8.30;81.00;;;;;;9176554;19;20015;-66
2024/03/17 08:05:07;;;;;;;14.82;7.15;;;8.40;80.90;;;;;;9177964;19;20090;-68
2024/03/17 08:08:13;;;;;;;16.48;8.23;;;8.60;80.80;;;;;;9177390;19;20019;-68
2024/03/17 08:11:18;;;;;;;16.63;7.38;;;8.70;80.60;;;;;;9175123;19;20022;-67
2024/03/17 08:14:24;;;;;;;15.93;7.70;;;8.80;80.50;;;;;;9178581;19;20022;-68
2024/03/17 08:17:29;;;;;;;16.63;7.90;;;8.90;80.50;;;;;;9177041;19;20014;-66
2024/03/17 08:20:39;;;;;;;16.85;7.82;;;8.90;80.30;;;;;;9176223;19;20025;-66
2024/03/17 08:23:46;;;;;;;14.82;7.32;;;9.00;80.20;;;;;;9177071;19;20007;-67
2024/03/17 08:26:53;;;;;;;15.60;8.13;;;9.10;80.20;;;;;;9173999;19;20018;-68
2024/03/17 08:29:57;;;;;;;17.08;8.82;;;9.10;80.10;;;;;;9175498;19;20018;-67
2024/03/17 08:33:04;;;;;;;22.38;8.43;;;9.20;80.20;;;;;;9177227;19;20059;-67
2024/03/17 08:36:11;;;;;;;19.40;8.48;;;9.30;80.30;;;;;;9176178;19;20480;-67
2024/03/17 08:39:18;;;;;;;20.23;8.68;;;9.50;80.40;;;;;;9172449;19;20123;-66
2024/03/17 08:42:23;;;;;;;16.95;7.32;;;9.60;80.40;;;;;;9177601;19;20014;-67
2024/03/17 08:45:29;;;;;;;19.77;7.38;;;9.70;80.30;;;;;;9176626;19;20048;-67
2024/03/17 08:48:35;;;;;;;15.15;7.90;;;9.80;80.20;;;;;;9174428;19;20011;-68
2024/03/17 08:51:44;;;;;;;15.63;7.88;;;10.00;80.20;;;;;;9170694;19;20029;-67
2024/03/17 08:54:51;;;;;;;14.35;7.80;;;10.10;80.20;;;;;;9174724;19;20014;-67
2024/03/17 08:57:57;;;;;;;14.65;6.97;;;10.20;80.10;;;;;;9173726;19;20007;-68
2024/03/17 09:01:05;;;;;;;13.65;7.28;;;10.40;80.10;;;;;;9174970;19;20564;-68
2024/03/17 09:04:13;;;;;;;16.63;7.18;;;10.60;80.00;;;;;;9173725;19;20021;-67
2024/03/17 09:07:20;;;;;;;12.23;7.03;;;10.70;79.80;;;;;;9175925;19;20032;-68
2024/03/17 09:10:26;;;;;;;14.98;6.97;;;10.80;79.60;;;;;;9173992;19;20011;-67
2024/03/17 09:13:31;;;;;;;13.18;6.50;;;10.90;79.50;;;;;;9175972;19;20448;-69
2024/03/17 09:16:37;;;;;;;16.08;6.78;;;11.10;79.30;;;;;;9175429;19;20018;-68
2024/03/17 09:19:42;;;;;;;12.85;6.93;;;11.20;79.10;;;;;;9173210;19;20148;-68
2024/03/17 09:22:51;;;;;;;12.00;5.70;;;11.30;79.00;;;;;;9173644;19;20014;-68
2024/03/17 09:26:00;;;;;;;12.18;6.43;;;11.40;78.80;;;;;;9173823;19;20070;-69
2024/03/17 09:29:07;;;;;;;15.70;7.18;;;11.50;78.60;;;;;;9173535;19;20015;-67
2024/03/17 09:32:17;;;;;;;12.43;6.28;;;11.60;78.60;;;;;;9173397;19;20011;-67
2024/03/17 09:35:23;;;;;;;15.18;6.45;;;11.70;78.40;;;;;;9173951;19;20033;-68
2024/03/17 09:38:31;;;;;;;8.43;5.47;;;11.80;78.20;;;;;;9171645;19;20014;-68
2024/03/17 09:41:38;;;;;;;13.05;5.60;;;11.80;77.80;;;;;;9173294;19;20019;-67
2024/03/17 09:44:42;;;;;;;15.27;6.20;;;11.90;77.60;;;;;;9173231;19;20010;-68
2024/03/17 09:47:49;;;;;;;11.77;5.60;;;12.00;77.50;;;;;;9173108;19;20356;-69
2024/03/17 09:50:55;;;;;;;9.75;5.88;;;12.00;77.50;;;;;;9167954;19;20034;-68
2024/03/17 09:54:04;;;;;;;9.75;5.65;;;12.10;77.40;;;;;;9173240;19;20021;-69
2024/03/17 09:57:16;;;;;;;11.98;6.05;;;12.10;77.20;;;;;;9174218;19;20021;-68
2024/03/17 10:00:23;;;;;;;12.82;5.55;;;12.20;77.20;;;;;;9172446;19;20345;-68
2024/03/17 10:03:44;;;;;;;12.00;5.57;;;12.30;77.20;;;;;;9173352;19;20097;-68
2024/03/17 10:06:51;;;;;;;11.57;5.90;;;12.40;76.90;;;;;;9173201;19;20010;-68
2024/03/17 10:10:16;;;;;;;9.30;5.82;;;12.50;77.70;;;;;;9172317;19;20026;-68
2024/03/17 10:13:22;;;;;;;16.52;5.82;;;12.60;76.80;;;;;;9173366;19;20014;-68
2024/03/17 10:16:29;;;;;;;11.73;5.72;;;12.80;77.10;;;;;;9169000;19;20514;-69
2024/03/17 10:19:39;;;;;;;14.63;6.05;;;12.90;76.90;;;;;;9170443;19;20019;-69
2024/03/17 10:22:44;;;;;;;10.55;5.05;;;13.10;76.80;;;;;;9170970;19;20114;-69
2024/03/17 10:25:53;;;;;;;9.77;5.72;;;13.20;77.30;;;;;;9165676;19;20014;-69
2024/03/17 10:28:57;;;;;;;7.82;4.93;;;13.40;76.40;;;;;;9171848;19;20583;-69
2024/03/17 10:32:06;;;;;;;8.75;4.30;;;13.60;76.30;;;;;;9169838;19;20365;-69
2024/03/17 10:35:32;;;;;;;6.82;3.95;;;13.70;76.00;;;;;;9171941;19;20031;-69
2024/03/17 10:38:39;;;;;;;10.35;4.85;;;13.80;75.30;;;;;;9170642;19;20019;-69
2024/03/17 10:41:46;;;;;;;9.25;4.57;;;13.90;75.40;;;;;;9171477;19;20477;-70
2024/03/17 10:44:54;;;;;;;7.13;4.30;;;14.00;75.00;;;;;;9171300;19;20014;-71
2024/03/17 10:48:03;;;;;;;10.50;4.97;;;14.10;74.90;;;;;;9171427;19;20563;-69
2024/03/17 10:51:17;;;;;;;9.00;4.57;;;14.10;74.50;;;;;;9171217;19;20019;-68
2024/03/17 10:54:28;;;;;;;7.75;3.97;;;14.20;74.50;;;;;;9179887;19;20677;-68
2024/03/17 10:57:48;;;;;;;11.07;4.53;;;14.20;74.10;;;;;;9181378;19;20026;-68
2024/03/17 11:00:53;;;;;;;8.55;4.40;;;14.30;74.00;;;;;;9178696;19;20628;-68
2024/03/17 11:04:04;;;;;;;7.85;4.60;;;14.30;74.00;;;;;;9178198;19;20011;-68
2024/03/17 11:07:18;;;;;;;7.50;4.28;;;14.30;73.70;;;;;;9175935;19;20086;-69
2024/03/17 11:10:26;;;;;;;8.10;4.05;;;14.30;73.70;;;;;;9175092;19;20026;-68
2024/03/17 11:13:36;;;;;;;10.80;4.18;;;14.30;73.50;;;;;;9174706;19;20029;-68
2024/03/17 11:16:43;;;;;;;11.25;4.80;;;14.40;73.30;;;;;;9178704;19;20014;-69
2024/03/17 11:19:47;;;;;;;6.53;4.25;;;14.40;73.30;;;;;;9177461;19;20018;-68
2024/03/17 11:22:56;;;;;;;7.18;4.68;;;14.40;73.10;;;;;;9177596;19;20014;-67
2024/03/17 11:26:01;;;;;;;7.00;4.13;;;14.40;73.00;;;;;;9177226;19;20049;-68
2024/03/17 11:29:32;;;;;;;8.00;5.15;;;14.40;72.80;;;;;;9177543;19;20015;-68
2024/03/17 11:32:37;;;;;;;6.72;4.47;;;14.40;72.40;;;;;;9175373;19;20020;-68
2024/03/17 11:35:44;;;;;;;5.90;4.25;;;14.40;72.70;;;;;;9177683;19;20025;-67
2024/03/17 11:38:52;;;;;;;7.65;3.92;;;14.40;72.60;;;;;;9175057;19;20019;-68
2024/03/17 11:42:10;;;;;;;11.35;5.60;;;14.30;72.10;;;;;;9176749;19;20025;-68
2024/03/17 11:45:16;;;;;;;11.80;5.70;;;14.30;72.00;;;;;;9177940;19;20495;-68
2024/03/17 11:48:23;;;;;;;8.32;4.85;;;14.30;72.00;;;;;;9176100;19;20017;-67
2024/03/17 11:51:26;;;;;;;7.97;4.60;;;14.20;72.10;;;;;;9171935;19;20058;-67
2024/03/17 11:54:34;;;;;;;11.32;5.10;;;14.20;72.00;;;;;;9179838;19;20292;-67
2024/03/17 11:57:38;;;;;;;8.80;4.50;;;14.10;71.90;;;;;;9178283;19;20035;-67
2024/03/17 12:00:54;;;;;;;10.40;4.57;;;14.10;71.90;;;;;;9176759;19;20014;-67
2024/03/17 12:03:57;;;;;;;10.18;3.95;;;14.10;71.60;;;;;;9176089;19;20030;-67
2024/03/17 12:07:03;;;;;;;7.32;4.07;;;14.10;72.50;;;;;;9177780;19;20054;-66
2024/03/17 12:10:14;;;;;;;9.68;4.60;;;14.10;71.90;;;;;;9176974;19;20014;-68
2024/03/17 12:13:19;;;;;;;7.00;4.60;;;14.10;71.60;;;;;;9176658;19;20468;-68
2024/03/17 12:16:26;;;;;;;7.32;4.28;;;14.00;71.60;;;;;;9175539;19;20011;-68
2024/03/17 12:19:30;;;;;;;7.40;4.28;;;14.00;71.40;;;;;;9176092;19;20018;-68
2024/03/17 12:22:37;;;;;;;7.13;4.47;;;14.00;71.50;;;;;;9173487;19;20019;-70
2024/03/17 12:25:43;;;;;;;9.77;4.57;;;14.00;71.40;;;;;;9175231;19;20022;-67
2024/03/17 12:28:46;;;;;;;6.43;4.68;;;14.00;71.40;;;;;;9172004;19;20102;-67
2024/03/17 12:31:56;;;;;;;6.93;4.38;;;14.00;71.30;;;;;;9172684;19;20017;-68
2024/03/17 12:34:58;;;;;;;9.73;4.78;;;14.00;71.20;;;;;;9175244;19;20127;-67
2024/03/17 12:38:05;;;;;;;6.88;4.70;;;14.00;71.30;;;;;;9174174;19;20360;-68
2024/03/17 12:41:16;;;;;;;9.18;4.40;;;14.00;71.20;;;;;;9174093;19;20019;-68
2024/03/17 12:44:26;;;;;;;6.65;4.07;;;14.00;70.80;;;;;;9172503;19;20021;-68
2024/03/17 12:47:34;;;;;;;8.88;4.38;;;14.00;71.00;;;;;;9167670;19;20025;-68
2024/03/17 12:50:44;;;;;;;7.18;4.50;;;14.00;70.90;;;;;;9168098;19;20013;-68
2024/03/17 12:53:49;;;;;;;7.25;4.45;;;14.00;70.70;;;;;;9170268;19;20018;-68
2024/03/17 13:00:35;;;;;;;5.95;4.03;;;14.10;70.50;;;;;;9168662;19;20017;-69
2024/03/17 13:03:44;;;;;;;5.97;3.85;;;14.10;70.60;;;;;;9167039;19;20473;-67
2024/03/17 13:06:49;;;;;;;10.02;4.60;;;14.10;70.50;;;;;;9170150;19;20029;-69
2024/03/17 13:09:56;;;;;;;7.85;4.30;;;14.10;70.50;;;;;;9168646;19;20018;-68
2024/03/17 13:13:04;;;;;;;7.55;4.80;;;14.10;70.40;;;;;;9161671;19;20034;-69
2024/03/17 13:16:13;;;;;;;9.13;4.10;;;14.10;70.20;;;;;;9167439;19;20019;-69
2024/03/17 13:19:20;;;;;;;6.25;4.00;;;14.20;70.20;;;;;;9166114;19;20101;-68
2024/03/17 13:22:26;;;;;;;9.52;4.75;;;14.20;70.10;;;;;;9168867;19;20014;-68
2024/03/17 13:25:34;;;;;;;9.10;4.43;;;14.20;70.20;;;;;;9169761;19;20098;-68
2024/03/17 13:28:40;;;;;;;11.52;4.32;;;14.20;70.00;;;;;;9167780;19;20050;-68
2024/03/17 13:31:45;;;;;;;7.50;4.07;;;14.20;69.90;;;;;;9167158;19;20039;-68
2024/03/17 13:34:54;;;;;;;10.20;4.53;;;14.20;70.40;;;;;;9169918;19;20014;-69
2024/03/17 13:38:01;;;;;;;7.57;4.68;;;14.30;69.60;;;;;;9166203;19;20559;-68
2024/03/17 13:41:08;;;;;;;8.50;4.15;;;14.30;69.70;;;;;;9168287;19;20007;-67
2024/03/17 13:44:13;;;;;;;10.02;5.63;;;14.30;69.60;;;;;;9169176;19;20085;-68
2024/03/17 13:47:19;;;;;;;9.40;5.18;;;14.30;69.60;;;;;;9168224;19;20014;-69
2024/03/17 13:50:27;;;;;;;11.88;5.18;;;14.40;69.60;;;;;;9149528;19;245830;-67
2024/03/17 13:53:33;;;;;;;8.73;5.40;;;14.40;69.50;;;;;;9169078;19;20523;-68
2024/03/17 13:56:37;;;;;;;8.73;5.55;;;14.40;69.60;;;;;;9170822;19;20051;-68
2024/03/17 13:59:44;;;;;;;6.72;4.38;;;14.40;69.40;;;;;;9171085;19;20336;-69
2024/03/17 14:02:49;;;;;;;8.82;4.45;;;14.40;69.30;;;;;;9170425;19;20018;-68
2024/03/17 14:05:58;;;;;;;11.85;4.53;;;14.40;69.10;;;;;;9171011;19;20021;-68
2024/03/17 14:09:03;;;;;;;11.55;5.03;;;14.50;69.10;;;;;;9169768;19;20037;-69
2024/03/17 14:12:10;;;;;;;5.57;3.85;;;14.40;69.10;;;;;;9166276;19;20029;-68
2024/03/17 14:15:16;;;;;;;13.38;4.80;;;14.40;69.00;;;;;;9164948;19;20018;-68
2024/03/17 14:18:22;;;;;;;6.65;4.60;;;14.40;68.90;;;;;;9168922;19;20483;-67
2024/03/17 14:21:29;;;;;;;9.88;4.55;;;14.40;68.80;;;;;;9170372;19;20082;-68
2024/03/17 14:24:37;;;;;;;9.43;4.35;;;14.40;68.70;;;;;;9166499;19;20015;-68
2024/03/17 14:27:41;;;;;;;7.43;4.75;;;14.40;68.90;;;;;;9168646;19;20021;-67
2024/03/17 14:30:47;;;;;;;11.07;5.60;;;14.40;68.80;;;;;;9171943;19;20017;-69
2024/03/17 14:33:52;;;;;;;11.95;5.60;;;14.40;68.90;;;;;;9168716;19;20094;-68
2024/03/17 14:37:01;;;;;;;14.20;5.43;;;14.40;68.80;;;;;;9168125;19;20034;-68
2024/03/17 14:40:11;;;;;;;12.45;5.68;;;14.30;68.60;;;;;;9169558;19;20010;-68
2024/03/17 14:43:17;;;;;;;10.65;5.70;;;14.30;68.70;;;;;;9169700;19;20014;-68
2024/03/17 14:46:22;;;;;;;10.85;5.85;;;14.30;68.70;;;;;;9169062;19;20025;-68
2024/03/17 14:49:28;;;;;;;14.40;6.35;;;14.30;69.30;;;;;;9167038;19;20499;-68
2024/03/17 14:52:36;;;;;;;9.57;5.43;;;14.30;68.60;;;;;;9167875;19;20528;-68
2024/03/17 14:55:43;;;;;;;9.25;4.80;;;14.30;68.60;;;;;;9167896;19;20019;-67
2024/03/17 14:58:49;;;;;;;8.68;5.88;;;14.30;68.60;;;;;;9165402;19;20082;-68
2024/03/17 15:01:55;;;;;;;10.32;5.18;;;14.30;68.60;;;;;;9169676;19;20007;-68
2024/03/17 15:05:00;;;;;;;10.30;4.90;;;14.30;68.50;;;;;;9170057;19;20518;-69
2024/03/17 15:08:09;;;;;;;10.10;5.10;;;14.30;68.50;;;;;;9170101;19;20957;-67
2024/03/17 15:11:14;;;;;;;10.45;6.00;;;14.20;68.40;;;;;;9167801;19;20374;-69
2024/03/17 15:14:20;;;;;;;13.30;6.18;;;14.20;68.50;;;;;;9168103;19;20014;-68
2024/03/17 15:17:25;;;;;;;12.73;6.57;;;14.20;68.50;;;;;;9170424;19;20015;-68
2024/03/17 15:20:31;;;;;;;12.80;6.65;;;14.20;68.50;;;;;;9168654;19;20831;-68
2024/03/17 15:23:39;;;;;;;16.90;7.65;;;14.20;68.50;;;;;;9167518;19;20023;-69
2024/03/17 15:26:46;;;;;;;13.15;6.75;;;14.20;68.40;;;;;;9169239;19;20026;-69
2024/03/17 15:29:51;;;;;;;12.10;6.18;;;14.10;68.40;;;;;;9166962;19;20015;-69
2024/03/17 15:32:57;;;;;;;9.73;6.28;;;14.10;68.40;;;;;;9167972;19;20007;-68
2024/03/17 15:36:03;;;;;;;12.55;7.65;;;14.10;68.50;;;;;;9171652;19;20013;-68
2024/03/17 15:39:13;;;;;;;10.32;6.75;;;14.10;68.50;;;;;;9174143;19;20011;-69
2024/03/17 15:42:18;;;;;;;11.95;6.28;;;14.00;68.40;;;;;;9178938;19;20019;-68
2024/03/17 15:45:25;;;;;;;10.77;6.03;;;14.00;68.40;;;;;;9176382;19;20013;-68
2024/03/17 15:48:30;;;;;;;12.95;6.90;;;14.00;68.40;;;;;;9177155;19;20041;-68
2024/03/17 15:51:36;;;;;;;11.05;6.47;;;14.00;68.40;;;;;;9173510;19;20018;-68
2024/03/17 15:54:43;;;;;;;12.82;6.75;;;14.00;68.50;;;;;;9177638;19;20010;-68
2024/03/17 15:57:49;;;;;;;9.77;6.10;;;13.90;68.30;;;;;;9177951;19;20030;-68
2024/03/17 16:00:54;;;;;;;11.23;5.90;;;13.90;68.40;;;;;;9177575;19;20025;-68
2024/03/17 16:04:02;;;;;;;12.32;6.10;;;13.90;68.40;;;;;;9178096;19;20029;-68
2024/03/17 16:07:08;;;;;;;12.00;6.85;;;13.80;68.30;;;;;;9177299;19;20021;-68
2024/03/17 16:10:22;;;;;;;11.63;6.72;;;13.80;68.30;;;;;;9177629;19;20030;-73
2024/03/17 16:13:27;;;;;;;10.63;6.35;;;13.70;68.10;;;;;;9174990;19;20522;-73
2024/03/17 16:16:33;;;;;;;14.75;7.32;;;13.70;68.20;;;;;;9176823;19;20539;-74
2024/03/17 16:19:38;;;;;;;11.50;6.50;;;13.70;68.30;;;;;;9175534;19;20468;-72